Time;durP1;ratioP1;P1;durP2;ratioP2;P2;SDS_P1;SDS_P2;PMS_P1;PMS_P2;Temp;Humidity;BMP_temperature;BMP_pressure;BME280_temperature;BME280_humidity;BME280_pressure;Samples;Min_cycle;Max_cycle;Signal;HPM_P1;HPM_P2
2023/12/23 00:02:21;;;;;;;1.37;0.60;;;7.60;70.60;;;;;;5070084;27;46361;-74
2023/12/23 00:04:47;;;;;;;1.13;0.60;;;7.70;70.50;;;;;;5050388;27;46702;-73
2023/12/23 00:07:14;;;;;;;1.10;0.70;;;7.70;70.40;;;;;;5068923;27;46348;-74
2023/12/23 00:09:40;;;;;;;1.40;0.60;;;7.70;70.90;;;;;;5069843;27;46785;-73
2023/12/23 00:12:09;;;;;;;2.17;1.00;;;7.70;70.30;;;;;;5070374;27;48125;-74
2023/12/23 00:14:35;;;;;;;1.50;0.80;;;7.70;70.00;;;;;;5066670;27;47223;-74
2023/12/23 00:17:02;;;;;;;1.50;0.60;;;7.80;69.80;;;;;;5071742;27;46493;-73
2023/12/23 00:19:28;;;;;;;1.20;0.60;;;7.80;69.70;;;;;;5074250;27;46569;-74
2023/12/23 00:21:54;;;;;;;1.00;0.57;;;7.80;69.40;;;;;;5069080;27;46460;-73
2023/12/23 00:24:20;;;;;;;1.37;0.70;;;7.70;69.40;;;;;;5073123;27;46458;-73
2023/12/23 00:26:46;;;;;;;2.07;0.63;;;7.70;69.80;;;;;;5075079;27;46447;-72
2023/12/23 00:29:12;;;;;;;0.90;0.50;;;7.80;69.60;;;;;;5073428;27;46376;-75
2023/12/23 00:31:37;;;;;;;1.00;0.50;;;7.70;69.30;;;;;;5071238;27;46807;-73
2023/12/23 00:34:03;;;;;;;1.30;0.70;;;7.70;69.50;;;;;;5070642;27;46281;-73
2023/12/23 00:36:50;;;;;;;1.93;0.70;;;7.70;69.50;;;;;;5073343;27;46629;-73
2023/12/23 00:39:16;;;;;;;2.57;0.70;;;7.70;69.40;;;;;;5076509;27;46655;-73
2023/12/23 00:41:42;;;;;;;1.30;0.60;;;7.70;69.40;;;;;;5068665;27;46661;-73
2023/12/23 00:44:07;;;;;;;1.07;0.53;;;7.70;69.40;;;;;;5069320;27;46761;-73
2023/12/23 00:46:34;;;;;;;1.00;0.60;;;7.70;69.20;;;;;;5072510;27;46662;-73
2023/12/23 00:48:59;;;;;;;1.47;0.60;;;7.70;69.20;;;;;;5070783;27;46829;-73
2023/12/23 00:51:25;;;;;;;0.93;0.60;;;7.70;69.20;;;;;;5070481;27;47011;-73
2023/12/23 00:53:50;;;;;;;1.17;0.67;;;7.80;68.80;;;;;;5069647;27;46428;-73
2023/12/23 00:56:23;;;;;;;1.10;0.50;;;7.70;69.00;;;;;;5049595;28;46691;-73
2023/12/23 00:58:49;;;;;;;1.93;0.70;;;7.70;68.90;;;;;;5070843;27;46336;-74
2023/12/23 01:01:15;;;;;;;1.10;0.60;;;7.70;68.80;;;;;;5069719;27;46486;-73
2023/12/23 01:03:40;;;;;;;1.23;0.60;;;7.70;68.60;;;;;;5069254;27;46491;-74
2023/12/23 01:06:06;;;;;;;1.20;0.60;;;7.70;68.70;;;;;;5070235;27;46648;-74
2023/12/23 01:08:32;;;;;;;1.30;0.60;;;7.70;68.70;;;;;;5068389;27;47051;-74
2023/12/23 01:10:57;;;;;;;2.67;0.53;;;7.70;68.40;;;;;;5070611;27;46485;-73
2023/12/23 01:13:23;;;;;;;1.10;0.60;;;7.80;68.30;;;;;;5068530;27;47068;-74
2023/12/23 01:15:48;;;;;;;1.30;0.50;;;7.80;68.30;;;;;;5071003;27;46748;-73
2023/12/23 01:18:14;;;;;;;1.03;0.60;;;7.80;68.20;;;;;;5069825;27;46457;-74
2023/12/23 01:20:42;;;;;;;1.93;0.77;;;7.80;68.20;;;;;;5068863;27;46473;-73
2023/12/23 01:23:08;;;;;;;1.20;0.70;;;7.80;68.00;;;;;;5071024;27;46679;-73
2023/12/23 01:25:33;;;;;;;2.20;0.70;;;7.80;68.00;;;;;;5068428;27;46614;-73
2023/12/23 01:28:04;;;;;;;2.47;0.80;;;7.70;68.20;;;;;;5068893;27;46583;-73
2023/12/23 01:30:33;;;;;;;1.43;0.70;;;7.60;68.50;;;;;;5068382;27;48252;-73
2023/12/23 01:32:59;;;;;;;1.00;0.50;;;7.60;68.80;;;;;;5069941;27;46348;-73
2023/12/23 01:35:24;;;;;;;3.00;0.70;;;7.60;69.00;;;;;;5069809;27;45928;-73
2023/12/23 01:37:50;;;;;;;2.60;0.70;;;7.60;68.90;;;;;;5071685;27;46416;-72
2023/12/23 01:40:16;;;;;;;1.30;0.70;;;7.50;68.90;;;;;;5069891;27;46740;-73
2023/12/23 01:42:42;;;;;;;1.10;0.60;;;7.60;69.00;;;;;;5070118;27;46603;-73
2023/12/23 01:45:08;;;;;;;1.20;0.60;;;7.50;69.10;;;;;;5067515;27;46482;-73
2023/12/23 01:47:35;;;;;;;7.23;0.70;;;7.40;69.60;;;;;;5067515;27;46400;-74
2023/12/23 01:50:02;;;;;;;1.00;0.60;;;7.30;70.00;;;;;;5068956;27;46424;-74
2023/12/23 01:52:30;;;;;;;1.20;0.70;;;7.20;70.40;;;;;;5069071;27;46409;-73
2023/12/23 01:54:55;;;;;;;2.50;0.70;;;7.10;71.30;;;;;;5070713;27;46114;-74
2023/12/23 01:57:21;;;;;;;2.70;0.67;;;7.10;71.80;;;;;;5069324;27;46582;-73
2023/12/23 01:59:47;;;;;;;1.50;1.03;;;7.10;71.70;;;;;;5070688;27;46478;-73
2023/12/23 02:02:13;;;;;;;1.07;0.60;;;7.20;71.20;;;;;;5068463;27;46611;-73
2023/12/23 02:04:39;;;;;;;1.00;0.60;;;7.20;71.20;;;;;;5068123;27;46506;-73
2023/12/23 02:07:04;;;;;;;1.23;0.70;;;7.20;71.10;;;;;;5071332;27;46743;-73
2023/12/23 02:09:30;;;;;;;1.27;0.70;;;7.20;71.20;;;;;;5067262;27;46497;-73
2023/12/23 02:12:01;;;;;;;1.20;0.70;;;7.20;71.20;;;;;;5068038;27;46475;-73
2023/12/23 02:14:27;;;;;;;1.67;0.80;;;7.20;71.30;;;;;;5067723;27;46401;-73
2023/12/23 02:16:53;;;;;;;2.00;0.80;;;7.10;71.40;;;;;;5068839;27;45989;-73
2023/12/23 02:19:18;;;;;;;1.33;0.77;;;7.10;71.30;;;;;;5069836;27;46712;-73
2023/12/23 02:21:44;;;;;;;2.20;0.77;;;7.10;71.30;;;;;;5067618;27;46530;-74
2023/12/23 02:24:10;;;;;;;1.63;0.70;;;7.20;71.00;;;;;;5068677;27;46415;-73
2023/12/23 02:26:37;;;;;;;1.40;0.70;;;7.30;71.00;;;;;;5069280;27;46404;-73
2023/12/23 02:29:03;;;;;;;2.30;0.80;;;7.20;71.00;;;;;;5057036;27;47244;-73
2023/12/23 02:31:30;;;;;;;1.30;0.63;;;7.00;72.10;;;;;;5067295;27;46704;-73
2023/12/23 02:33:56;;;;;;;1.10;0.60;;;6.90;72.90;;;;;;5069023;27;46544;-74
2023/12/23 02:36:22;;;;;;;1.00;0.60;;;6.80;73.30;;;;;;5068090;27;46580;-73
2023/12/23 02:38:48;;;;;;;1.30;0.50;;;6.90;73.20;;;;;;5067860;27;46906;-73
2023/12/23 02:41:14;;;;;;;0.90;0.50;;;6.80;73.90;;;;;;5070689;27;46520;-73
2023/12/23 02:43:39;;;;;;;1.17;0.60;;;6.70;74.70;;;;;;5071279;27;46543;-73
2023/12/23 02:46:05;;;;;;;0.90;0.60;;;6.80;74.30;;;;;;5071216;27;46460;-73
2023/12/23 02:48:30;;;;;;;1.40;0.60;;;6.80;73.50;;;;;;5069044;27;46495;-74
2023/12/23 02:50:56;;;;;;;0.90;0.50;;;6.90;73.40;;;;;;5067883;27;46470;-73
2023/12/23 02:53:22;;;;;;;1.00;0.50;;;6.90;73.00;;;;;;5068779;27;46439;-73
2023/12/23 02:55:47;;;;;;;1.10;0.60;;;6.80;73.40;;;;;;5069881;27;46504;-73
2023/12/23 02:58:13;;;;;;;1.20;0.60;;;6.70;74.00;;;;;;5069400;27;46532;-73
2023/12/23 03:00:39;;;;;;;0.90;0.50;;;6.60;74.80;;;;;;5067158;27;46414;-73
2023/12/23 03:03:04;;;;;;;1.00;0.50;;;6.60;75.00;;;;;;5069640;27;46626;-73
2023/12/23 03:05:30;;;;;;;1.23;0.60;;;6.60;75.10;;;;;;5065519;27;46533;-72
2023/12/23 03:07:55;;;;;;;1.67;0.50;;;6.60;75.00;;;;;;5065570;27;46583;-74
2023/12/23 03:10:21;;;;;;;1.00;0.50;;;6.60;75.10;;;;;;5065978;27;46436;-73
2023/12/23 03:12:47;;;;;;;0.90;0.50;;;6.60;75.00;;;;;;5069390;27;46380;-73
2023/12/23 03:15:13;;;;;;;0.90;0.50;;;6.60;75.10;;;;;;5068281;27;46225;-73
2023/12/23 03:17:38;;;;;;;0.90;0.50;;;6.80;74.90;;;;;;5067625;27;46592;-73
2023/12/23 03:20:05;;;;;;;0.90;0.50;;;6.80;74.00;;;;;;5067390;27;46427;-73
2023/12/23 03:22:30;;;;;;;1.00;0.60;;;6.80;73.90;;;;;;5071507;27;46415;-73
2023/12/23 03:24:56;;;;;;;0.90;0.50;;;6.80;73.70;;;;;;5067999;27;46793;-73
2023/12/23 03:27:22;;;;;;;2.07;0.60;;;6.90;73.50;;;;;;5058192;28;48260;-74
2023/12/23 03:29:47;;;;;;;1.10;0.60;;;6.90;73.20;;;;;;5067329;27;46399;-74
2023/12/23 03:32:13;;;;;;;1.10;0.60;;;6.90;73.10;;;;;;5065959;27;46459;-74
2023/12/23 03:34:41;;;;;;;0.90;0.50;;;6.70;73.50;;;;;;5068625;27;46171;-73
2023/12/23 03:37:06;;;;;;;1.23;0.60;;;6.80;73.60;;;;;;5069690;27;47376;-73
2023/12/23 03:39:32;;;;;;;3.00;0.63;;;6.80;73.40;;;;;;5068410;27;46422;-73
2023/12/23 03:41:57;;;;;;;1.00;0.60;;;6.90;73.00;;;;;;5067901;27;46580;-73
2023/12/23 03:44:23;;;;;;;1.20;0.60;;;6.90;72.90;;;;;;5069784;27;45956;-73
2023/12/23 03:46:48;;;;;;;0.90;0.50;;;6.90;72.90;;;;;;5068689;27;46482;-74
2023/12/23 03:49:14;;;;;;;1.50;0.70;;;6.90;72.80;;;;;;5069485;27;46472;-74
2023/12/23 03:51:40;;;;;;;0.90;0.60;;;6.90;72.80;;;;;;5070086;27;46499;-73
2023/12/23 03:54:05;;;;;;;1.33;0.73;;;6.90;72.70;;;;;;5066237;27;46462;-73
2023/12/23 03:56:31;;;;;;;1.10;0.60;;;6.90;72.60;;;;;;5067113;27;46419;-73
2023/12/23 03:58:58;;;;;;;1.27;0.60;;;6.90;72.60;;;;;;5067810;27;46419;-74
2023/12/23 04:01:23;;;;;;;0.90;0.50;;;6.90;72.30;;;;;;5069649;27;47335;-73
2023/12/23 04:03:49;;;;;;;1.60;0.60;;;6.90;72.30;;;;;;5066780;27;45923;-74
2023/12/23 04:06:15;;;;;;;1.07;0.63;;;6.90;72.40;;;;;;5066753;27;48069;-73
2023/12/23 04:08:42;;;;;;;1.10;0.50;;;6.90;72.30;;;;;;5066906;27;46460;-73
2023/12/23 04:11:07;;;;;;;1.00;0.60;;;6.80;72.80;;;;;;5071632;27;46444;-73
2023/12/23 04:13:33;;;;;;;0.93;0.50;;;6.80;72.60;;;;;;5073236;27;46642;-72
2023/12/23 04:16:03;;;;;;;1.00;0.60;;;6.80;72.90;;;;;;5069748;27;46427;-74
2023/12/23 04:18:28;;;;;;;1.10;0.57;;;6.70;73.00;;;;;;5070775;27;46397;-73
2023/12/23 04:20:54;;;;;;;1.20;0.57;;;6.70;73.10;;;;;;5069483;27;46366;-72
2023/12/23 04:23:19;;;;;;;1.30;0.60;;;6.80;72.90;;;;;;5071645;27;46690;-74
2023/12/23 04:25:45;;;;;;;1.17;0.60;;;6.80;73.00;;;;;;5075377;27;47055;-73
2023/12/23 04:28:11;;;;;;;1.30;0.60;;;6.80;72.90;;;;;;5072571;27;46600;-74
2023/12/23 04:30:37;;;;;;;4.50;0.50;;;6.80;72.90;;;;;;5075538;27;46695;-73
2023/12/23 04:33:03;;;;;;;1.47;0.70;;;6.80;72.90;;;;;;5072615;27;46196;-73
2023/12/23 04:35:28;;;;;;;1.10;0.70;;;6.80;72.90;;;;;;5069959;27;46424;-73
2023/12/23 04:37:55;;;;;;;1.00;0.60;;;6.90;72.80;;;;;;5069038;27;46510;-73
2023/12/23 04:40:20;;;;;;;1.13;0.70;;;6.90;72.60;;;;;;5070372;27;46508;-73
2023/12/23 04:42:46;;;;;;;4.10;0.60;;;6.80;72.80;;;;;;5073005;27;46428;-73
2023/12/23 04:45:12;;;;;;;0.90;0.50;;;6.80;72.70;;;;;;5069428;22;46354;-71
2023/12/23 04:47:38;;;;;;;2.90;0.60;;;6.80;72.90;;;;;;5052266;28;46466;-72
2023/12/23 04:50:04;;;;;;;1.37;0.60;;;6.80;73.10;;;;;;5050808;28;46804;-72
2023/12/23 04:52:30;;;;;;;2.93;0.60;;;6.80;72.90;;;;;;5050404;28;46369;-74
2023/12/23 04:54:55;;;;;;;1.00;0.60;;;6.90;72.70;;;;;;5049255;28;46429;-72
2023/12/23 04:57:21;;;;;;;1.40;0.80;;;6.90;72.30;;;;;;5049159;28;46617;-73
2023/12/23 04:59:46;;;;;;;2.33;0.67;;;6.90;72.30;;;;;;5047466;28;46907;-72
2023/12/23 05:02:12;;;;;;;1.10;0.60;;;7.00;72.10;;;;;;5049124;28;46395;-73
2023/12/23 05:04:38;;;;;;;0.90;0.50;;;7.00;71.80;;;;;;5050474;28;46400;-72
2023/12/23 05:07:03;;;;;;;1.10;0.60;;;7.00;71.70;;;;;;5050784;28;46430;-72
2023/12/23 05:09:29;;;;;;;1.10;0.63;;;7.00;71.80;;;;;;5048253;28;46162;-72
2023/12/23 05:11:54;;;;;;;0.97;0.50;;;7.00;71.60;;;;;;5052427;28;46664;-72
2023/12/23 05:14:20;;;;;;;2.20;0.80;;;7.00;71.60;;;;;;5049953;28;46792;-72
2023/12/23 05:16:45;;;;;;;2.70;0.70;;;7.00;71.60;;;;;;5051327;28;46485;-73
2023/12/23 05:19:11;;;;;;;1.53;0.60;;;7.00;71.40;;;;;;5047829;28;46686;-73
2023/12/23 05:21:37;;;;;;;2.13;0.70;;;7.00;71.30;;;;;;5051373;28;46762;-73
2023/12/23 05:24:02;;;;;;;1.10;0.60;;;7.00;71.30;;;;;;5047932;28;47227;-73
2023/12/23 05:26:28;;;;;;;1.20;0.60;;;7.10;71.40;;;;;;5045850;28;46341;-74
2023/12/23 05:28:54;;;;;;;0.90;0.60;;;7.00;71.30;;;;;;5050818;28;46425;-72
2023/12/23 05:31:19;;;;;;;0.90;0.50;;;7.10;71.40;;;;;;5048394;28;46604;-73
2023/12/23 05:33:45;;;;;;;1.53;0.70;;;7.10;71.20;;;;;;5046070;28;47501;-72
2023/12/23 05:36:11;;;;;;;1.00;0.60;;;7.10;71.20;;;;;;5046678;28;46391;-73
2023/12/23 05:38:36;;;;;;;2.07;0.63;;;7.10;71.10;;;;;;5046591;28;46668;-73
2023/12/23 05:41:02;;;;;;;1.77;0.70;;;7.10;71.00;;;;;;5049292;28;46540;-73
2023/12/23 05:43:27;;;;;;;1.00;0.60;;;7.10;71.10;;;;;;5053617;28;48154;-73
2023/12/23 05:45:53;;;;;;;7.10;0.73;;;7.10;71.00;;;;;;5049874;28;46450;-73
2023/12/23 05:48:19;;;;;;;1.00;0.60;;;7.00;71.00;;;;;;5048094;28;46625;-73
2023/12/23 05:50:44;;;;;;;2.20;0.70;;;7.00;71.00;;;;;;5046974;28;46667;-73
2023/12/23 05:53:10;;;;;;;1.03;0.60;;;7.00;71.00;;;;;;5046742;28;46466;-73
2023/12/23 05:55:35;;;;;;;1.57;0.60;;;7.00;71.10;;;;;;5047801;28;46454;-73
2023/12/23 05:58:02;;;;;;;1.93;0.70;;;7.10;71.10;;;;;;5046522;28;46656;-72
2023/12/23 06:00:27;;;;;;;2.27;0.70;;;7.10;71.00;;;;;;5046925;28;46424;-72
2023/12/23 06:02:53;;;;;;;1.00;0.60;;;7.10;70.90;;;;;;5047021;28;46404;-72
2023/12/23 06:05:19;;;;;;;1.03;0.60;;;7.10;71.00;;;;;;5049035;28;46525;-72
2023/12/23 06:07:45;;;;;;;1.97;0.70;;;7.00;70.80;;;;;;5047680;28;46459;-71
2023/12/23 06:10:11;;;;;;;1.10;0.60;;;7.00;71.20;;;;;;5046522;28;46412;-72
2023/12/23 06:12:36;;;;;;;1.43;0.60;;;7.00;71.30;;;;;;5047503;28;47825;-72
2023/12/23 06:15:02;;;;;;;1.50;0.70;;;7.00;71.30;;;;;;5048666;28;46349;-72
2023/12/23 06:17:28;;;;;;;1.33;0.70;;;7.00;71.10;;;;;;5048965;28;46726;-73
2023/12/23 06:19:53;;;;;;;1.30;0.70;;;7.00;71.00;;;;;;5047320;28;46665;-72
2023/12/23 06:22:19;;;;;;;1.87;1.03;;;7.00;70.90;;;;;;5046306;28;47510;-73
2023/12/23 06:24:45;;;;;;;1.00;0.60;;;7.10;70.70;;;;;;5047938;28;46501;-73
2023/12/23 06:27:10;;;;;;;2.43;1.00;;;7.00;70.70;;;;;;5052796;28;46722;-73
2023/12/23 06:29:36;;;;;;;2.83;0.87;;;7.00;70.90;;;;;;5044480;28;46466;-72
2023/12/23 06:32:02;;;;;;;2.53;1.00;;;7.10;70.80;;;;;;5047953;28;46572;-73
2023/12/23 06:34:27;;;;;;;1.10;0.70;;;7.10;70.70;;;;;;5048287;28;46456;-72
2023/12/23 06:36:53;;;;;;;3.00;0.70;;;7.10;70.70;;;;;;5047849;28;46651;-73
2023/12/23 06:39:19;;;;;;;2.23;0.70;;;7.10;70.70;;;;;;5047791;28;46383;-73
2023/12/23 06:41:45;;;;;;;2.10;0.70;;;7.10;70.60;;;;;;5047207;28;46530;-73
2023/12/23 06:44:11;;;;;;;1.30;0.70;;;7.10;70.50;;;;;;5050028;28;46762;-71
2023/12/23 06:46:36;;;;;;;1.03;0.70;;;7.10;70.60;;;;;;5047092;28;46439;-75
2023/12/23 06:49:02;;;;;;;1.10;0.60;;;7.10;70.50;;;;;;5046157;28;46404;-73
2023/12/23 06:51:28;;;;;;;1.30;0.70;;;7.10;70.60;;;;;;5050569;28;46326;-74
2023/12/23 06:53:55;;;;;;;1.77;0.63;;;7.10;70.50;;;;;;5042014;28;46556;-74
2023/12/23 06:56:22;;;;;;;1.20;0.70;;;7.20;70.50;;;;;;5058281;28;46683;-73
2023/12/23 06:58:48;;;;;;;1.30;0.73;;;7.10;70.40;;;;;;5061004;28;46493;-74
2023/12/23 07:01:13;;;;;;;2.27;0.70;;;7.20;70.40;;;;;;5061017;28;47128;-73
2023/12/23 07:03:43;;;;;;;1.20;0.80;;;7.20;70.30;;;;;;5061634;28;46362;-74
2023/12/23 07:06:12;;;;;;;5.27;1.47;;;7.20;70.30;;;;;;5041854;28;46467;-73
2023/12/23 07:08:38;;;;;;;0.90;0.60;;;7.30;70.10;;;;;;5051639;28;46533;-73
2023/12/23 07:11:05;;;;;;;1.10;0.67;;;7.30;70.10;;;;;;5039931;28;49207;-73
2023/12/23 07:13:30;;;;;;;1.00;0.60;;;7.30;70.10;;;;;;5046363;28;46720;-73
2023/12/23 07:15:56;;;;;;;1.30;0.67;;;7.30;70.10;;;;;;5052879;28;46743;-73
2023/12/23 07:18:21;;;;;;;1.00;0.70;;;7.20;70.00;;;;;;5050260;28;46547;-75
2023/12/23 07:20:47;;;;;;;1.10;0.60;;;7.30;70.00;;;;;;5052578;28;46526;-75
2023/12/23 07:23:13;;;;;;;1.00;0.60;;;7.30;69.90;;;;;;5060520;28;46402;-74
2023/12/23 07:25:39;;;;;;;1.50;0.60;;;7.30;70.00;;;;;;5049344;28;46651;-73
2023/12/23 07:28:05;;;;;;;1.10;0.70;;;7.30;70.00;;;;;;5060440;28;46485;-74
2023/12/23 07:30:30;;;;;;;1.20;0.70;;;7.30;69.70;;;;;;5047817;28;46419;-74
2023/12/23 07:32:56;;;;;;;1.27;0.60;;;7.30;69.80;;;;;;5046738;28;46719;-73
2023/12/23 07:35:22;;;;;;;1.83;0.80;;;7.30;69.60;;;;;;5058253;28;46495;-73
2023/12/23 07:37:47;;;;;;;1.17;0.60;;;7.30;69.70;;;;;;5060660;28;46736;-74
2023/12/23 07:40:13;;;;;;;1.60;0.73;;;7.30;69.50;;;;;;5047058;28;46629;-74
2023/12/23 07:42:38;;;;;;;3.30;1.00;;;7.30;69.50;;;;;;5041500;28;46424;-74
2023/12/23 07:45:05;;;;;;;2.93;1.23;;;7.30;69.50;;;;;;5042553;28;46406;-74
2023/12/23 07:47:30;;;;;;;7.53;3.00;;;7.30;69.50;;;;;;5050564;28;46614;-75
2023/12/23 07:49:56;;;;;;;5.87;2.37;;;7.30;69.40;;;;;;5041520;28;47048;-74
2023/12/23 07:52:21;;;;;;;7.80;2.17;;;7.30;69.40;;;;;;5053185;28;46719;-73
2023/12/23 07:54:47;;;;;;;15.13;6.60;;;7.30;69.30;;;;;;5063873;28;46368;-73
2023/12/23 07:57:13;;;;;;;7.63;3.20;;;7.30;69.40;;;;;;5051248;28;46476;-75
2023/12/23 07:59:39;;;;;;;42.43;16.93;;;7.30;69.30;;;;;;5060697;28;46921;-74
2023/12/23 08:02:05;;;;;;;28.70;10.30;;;7.30;69.40;;;;;;5051695;28;46422;-74
2023/12/23 08:04:31;;;;;;;2.93;1.80;;;7.30;69.30;;;;;;5053893;28;46392;-73
2023/12/23 08:06:57;;;;;;;3.57;1.80;;;7.30;69.30;;;;;;5050927;28;45894;-74
2023/12/23 08:09:22;;;;;;;2.30;1.63;;;7.30;69.20;;;;;;5047973;28;46806;-73
2023/12/23 08:11:48;;;;;;;1.40;0.93;;;7.40;69.20;;;;;;5044400;28;46403;-75
2023/12/23 08:14:14;;;;;;;1.27;0.80;;;7.40;69.10;;;;;;5055149;28;46402;-75
2023/12/23 08:16:39;;;;;;;1.00;0.60;;;7.40;69.20;;;;;;5052192;28;46412;-74
2023/12/23 08:19:05;;;;;;;1.77;0.70;;;7.30;69.10;;;;;;5062020;28;47964;-74
2023/12/23 08:21:31;;;;;;;1.00;0.60;;;7.30;69.40;;;;;;5055956;28;46168;-73
2023/12/23 08:23:57;;;;;;;1.00;0.60;;;7.30;69.30;;;;;;5055558;28;46443;-74
2023/12/23 08:26:23;;;;;;;1.50;0.60;;;7.30;69.20;;;;;;5055692;28;46663;-75
2023/12/23 08:28:48;;;;;;;0.90;0.60;;;7.30;69.30;;;;;;5054170;28;46522;-75
2023/12/23 08:31:14;;;;;;;1.10;0.70;;;7.30;69.00;;;;;;5056855;28;46403;-73
2023/12/23 08:33:39;;;;;;;1.30;0.80;;;7.30;69.00;;;;;;5052191;28;46656;-74
2023/12/23 08:36:05;;;;;;;1.30;0.80;;;7.40;68.90;;;;;;5049137;28;46437;-74
2023/12/23 08:38:31;;;;;;;1.10;0.70;;;7.40;68.70;;;;;;5062200;28;47159;-75
2023/12/23 08:40:56;;;;;;;1.50;0.70;;;7.50;68.70;;;;;;5061995;28;46445;-74
2023/12/23 08:43:22;;;;;;;1.00;0.63;;;7.50;68.60;;;;;;5043004;28;46512;-74
2023/12/23 08:45:48;;;;;;;1.10;0.70;;;7.40;68.50;;;;;;5050860;28;46375;-73
2023/12/23 08:48:13;;;;;;;1.00;0.60;;;7.50;68.30;;;;;;5055216;28;46455;-75
2023/12/23 08:50:39;;;;;;;1.30;0.80;;;7.60;68.20;;;;;;5055018;28;46659;-74
2023/12/23 08:53:05;;;;;;;1.30;0.60;;;7.60;67.90;;;;;;5062171;28;46567;-74
2023/12/23 08:55:30;;;;;;;1.50;0.67;;;7.70;67.90;;;;;;5060377;28;46505;-74
2023/12/23 08:57:56;;;;;;;1.00;0.60;;;7.70;67.80;;;;;;5042935;28;46326;-74
2023/12/23 09:00:22;;;;;;;1.93;0.90;;;7.70;67.80;;;;;;5050523;28;46503;-74
2023/12/23 09:02:47;;;;;;;1.20;0.70;;;7.70;67.80;;;;;;5059365;28;46313;-72
2023/12/23 09:05:13;;;;;;;1.20;0.60;;;7.70;68.80;;;;;;5058610;28;46444;-71
2023/12/23 09:07:39;;;;;;;1.10;0.70;;;7.80;67.50;;;;;;5062381;28;46393;-75
2023/12/23 09:10:05;;;;;;;1.00;0.60;;;7.70;67.10;;;;;;5062075;28;46777;-75
2023/12/23 09:12:33;;;;;;;1.17;0.60;;;7.70;67.30;;;;;;5062719;28;46360;-75
2023/12/23 09:14:59;;;;;;;1.00;0.60;;;7.70;67.30;;;;;;5062461;28;46419;-74
2023/12/23 09:17:24;;;;;;;1.00;0.60;;;7.70;67.00;;;;;;5054347;28;46305;-74
2023/12/23 09:19:50;;;;;;;0.90;0.50;;;7.70;67.20;;;;;;5059907;28;46698;-74
2023/12/23 09:22:15;;;;;;;1.37;0.70;;;7.80;67.10;;;;;;5047074;28;46419;-75
2023/12/23 09:24:43;;;;;;;1.43;0.83;;;7.80;66.90;;;;;;5055697;28;45913;-74
2023/12/23 09:27:09;;;;;;;1.00;0.60;;;7.90;66.60;;;;;;5047743;28;46547;-73
2023/12/23 09:29:35;;;;;;;1.00;0.60;;;7.90;66.50;;;;;;5060875;28;46481;-74
2023/12/23 09:32:00;;;;;;;1.00;0.60;;;7.80;66.40;;;;;;5056609;28;46456;-74
2023/12/23 09:34:26;;;;;;;1.40;0.60;;;7.90;66.50;;;;;;5059699;28;46183;-74
2023/12/23 09:36:52;;;;;;;1.00;0.50;;;7.80;66.20;;;;;;5058725;28;47516;-74
2023/12/23 09:39:18;;;;;;;0.90;0.57;;;7.90;66.40;;;;;;5052541;28;46459;-75
2023/12/23 09:41:44;;;;;;;1.47;0.60;;;8.00;67.40;;;;;;5056060;28;46397;-74
2023/12/23 09:44:10;;;;;;;0.97;0.60;;;8.10;65.90;;;;;;5062187;28;46343;-74
2023/12/23 09:46:38;;;;;;;1.00;0.60;;;8.10;65.80;;;;;;5052198;28;47254;-74
2023/12/23 09:49:04;;;;;;;1.67;0.60;;;8.00;65.60;;;;;;5055096;28;46479;-75
2023/12/23 09:51:32;;;;;;;1.10;0.60;;;8.00;65.80;;;;;;5053665;28;46487;-75
2023/12/23 09:54:01;;;;;;;1.00;0.60;;;8.00;65.90;;;;;;5052160;28;46431;-73
2023/12/23 09:56:28;;;;;;;1.00;0.60;;;7.90;65.80;;;;;;5061445;28;46480;-74
2023/12/23 09:58:53;;;;;;;1.33;0.70;;;7.90;65.70;;;;;;5040829;28;46800;-75
2023/12/23 10:01:19;;;;;;;1.00;0.60;;;7.90;65.70;;;;;;5056190;28;46642;-75
2023/12/23 10:03:46;;;;;;;1.00;0.60;;;7.80;65.60;;;;;;5052636;28;46411;-73
2023/12/23 10:06:13;;;;;;;1.00;0.60;;;7.80;65.60;;;;;;5047955;28;46518;-75
2023/12/23 10:08:40;;;;;;;1.10;0.60;;;7.90;65.60;;;;;;5052578;28;46318;-75
2023/12/23 10:11:05;;;;;;;1.10;0.60;;;8.00;65.30;;;;;;5057047;28;46486;-75
2023/12/23 10:13:31;;;;;;;1.00;0.60;;;8.00;65.20;;;;;;5061636;28;46733;-75
2023/12/23 10:15:56;;;;;;;1.27;0.60;;;8.00;64.90;;;;;;5049468;28;47306;-74
2023/12/23 10:18:22;;;;;;;1.00;0.60;;;8.10;64.90;;;;;;5049463;28;46381;-74
2023/12/23 10:20:48;;;;;;;2.07;0.60;;;8.00;64.70;;;;;;5045816;28;46589;-73
2023/12/23 10:23:13;;;;;;;1.57;0.60;;;8.10;64.70;;;;;;5056405;28;47136;-74
2023/12/23 10:25:39;;;;;;;1.20;0.70;;;8.10;64.50;;;;;;5052267;28;46723;-74
2023/12/23 10:28:07;;;;;;;1.43;0.60;;;8.20;64.30;;;;;;5054040;28;46431;-74
2023/12/23 10:30:37;;;;;;;1.10;0.60;;;8.20;64.00;;;;;;5053027;28;46463;-75
2023/12/23 10:33:06;;;;;;;1.00;0.60;;;8.20;63.90;;;;;;5046350;28;46623;-74
2023/12/23 10:35:41;;;;;;;1.00;0.60;;;8.20;63.90;;;;;;5061759;28;46532;-74
2023/12/23 10:38:09;;;;;;;1.60;0.70;;;8.20;63.90;;;;;;5062242;28;46673;-74
2023/12/23 10:40:35;;;;;;;1.10;0.60;;;8.30;63.90;;;;;;5056985;28;46333;-75
2023/12/23 10:43:01;;;;;;;1.30;0.60;;;8.30;63.90;;;;;;5061849;28;46360;-75
2023/12/23 10:45:28;;;;;;;1.20;0.63;;;8.30;63.90;;;;;;5053482;28;46418;-74
2023/12/23 10:47:53;;;;;;;1.20;0.60;;;8.20;64.00;;;;;;5062033;28;46650;-74
2023/12/23 10:50:19;;;;;;;1.20;0.90;;;8.20;63.90;;;;;;5054929;28;46614;-74
2023/12/23 10:52:46;;;;;;;0.97;0.57;;;8.20;63.90;;;;;;5058679;28;46582;-74
2023/12/23 10:55:14;;;;;;;1.40;0.60;;;8.20;63.30;;;;;;5049275;28;47040;-74
2023/12/23 10:57:41;;;;;;;1.10;0.60;;;8.10;63.30;;;;;;5051190;28;46361;-74
2023/12/23 11:00:09;;;;;;;2.07;0.60;;;8.20;63.10;;;;;;5062696;28;46374;-74
2023/12/23 11:02:37;;;;;;;1.00;0.60;;;8.30;62.30;;;;;;5059003;28;46435;-74
2023/12/23 11:05:07;;;;;;;1.10;0.70;;;8.40;61.70;;;;;;5063931;28;47223;-74
2023/12/23 11:07:38;;;;;;;1.30;0.70;;;8.50;61.50;;;;;;5036258;28;46417;-75
2023/12/23 11:10:05;;;;;;;1.20;0.60;;;8.60;61.20;;;;;;5061526;28;46458;-74
2023/12/23 11:12:31;;;;;;;1.30;0.60;;;8.50;60.40;;;;;;5053210;28;46584;-75
2023/12/23 11:14:59;;;;;;;1.00;0.60;;;8.30;60.50;;;;;;5060325;28;46348;-75
2023/12/23 11:17:29;;;;;;;1.20;0.70;;;8.30;61.10;;;;;;5049537;28;46412;-75
2023/12/23 11:19:59;;;;;;;1.00;0.60;;;8.30;61.20;;;;;;5042995;28;46344;-74
2023/12/23 11:22:27;;;;;;;1.40;0.60;;;8.20;61.00;;;;;;5060986;28;46716;-73
2023/12/23 11:24:52;;;;;;;1.10;0.60;;;8.20;61.00;;;;;;5054408;28;46387;-73
2023/12/23 11:27:31;;;;;;;2.07;0.70;;;8.20;60.60;;;;;;5054750;28;46407;-74
2023/12/23 11:30:01;;;;;;;1.40;0.60;;;8.10;61.00;;;;;;5040305;28;46444;-75
2023/12/23 11:32:36;;;;;;;1.10;0.60;;;8.20;60.80;;;;;;5049393;28;46435;-75
2023/12/23 11:35:07;;;;;;;2.53;0.60;;;8.10;61.00;;;;;;5040805;28;46631;-75
2023/12/23 11:37:53;;;;;;;1.40;0.60;;;8.10;61.10;;;;;;5055670;28;46800;-75
2023/12/23 11:40:20;;;;;;;1.20;0.60;;;8.00;61.00;;;;;;5038920;28;46709;-75
2023/12/23 11:42:48;;;;;;;1.30;0.60;;;8.00;61.20;;;;;;5057891;28;46431;-75
2023/12/23 11:45:14;;;;;;;1.40;0.70;;;8.00;61.10;;;;;;5040157;28;47147;-75
2023/12/23 11:47:41;;;;;;;1.10;0.60;;;8.00;61.10;;;;;;5049425;28;46465;-74
2023/12/23 11:50:07;;;;;;;1.00;0.50;;;8.00;61.60;;;;;;5044728;28;45891;-74
2023/12/23 11:52:34;;;;;;;1.20;0.80;;;7.70;62.20;;;;;;5052946;28;46652;-74
2023/12/23 11:55:01;;;;;;;1.00;0.60;;;7.60;63.00;;;;;;5047087;28;46448;-72
2023/12/23 11:57:27;;;;;;;1.20;0.60;;;7.50;63.20;;;;;;5045176;28;46460;-74
2023/12/23 11:59:55;;;;;;;1.83;0.60;;;7.50;63.20;;;;;;5051030;28;46407;-73
2023/12/23 12:02:20;;;;;;;1.10;0.67;;;7.50;63.30;;;;;;5046117;28;46705;-73
2023/12/23 12:04:46;;;;;;;0.97;0.63;;;7.50;63.20;;;;;;5058648;28;47120;-73
2023/12/23 12:07:12;;;;;;;1.10;0.60;;;7.40;63.50;;;;;;5052401;28;45729;-74
2023/12/23 12:09:37;;;;;;;1.10;0.60;;;7.40;63.20;;;;;;5042922;28;46456;-73
2023/12/23 12:12:04;;;;;;;1.50;0.80;;;7.50;63.20;;;;;;5044785;28;46391;-73
2023/12/23 12:14:30;;;;;;;2.30;0.60;;;7.40;63.20;;;;;;5059979;28;47483;-74
2023/12/23 12:16:56;;;;;;;1.10;0.70;;;7.50;63.20;;;;;;5058157;28;46385;-73
2023/12/23 12:19:22;;;;;;;2.03;0.60;;;7.70;63.40;;;;;;5038967;28;46489;-74
2023/12/23 12:21:47;;;;;;;1.40;0.70;;;7.80;63.00;;;;;;5059121;28;46431;-74
2023/12/23 12:24:13;;;;;;;1.53;0.63;;;7.70;63.50;;;;;;5047181;28;46717;-74
2023/12/23 12:26:40;;;;;;;2.07;0.60;;;7.80;62.90;;;;;;5057920;28;46647;-75
2023/12/23 12:29:05;;;;;;;0.97;0.57;;;7.80;62.90;;;;;;5048990;28;46358;-73
2023/12/23 12:31:31;;;;;;;1.57;0.70;;;7.80;62.80;;;;;;5050064;28;46424;-74
2023/12/23 12:33:58;;;;;;;1.40;0.70;;;7.90;62.70;;;;;;5064710;28;46458;-73
2023/12/23 12:36:24;;;;;;;1.00;0.60;;;8.00;62.20;;;;;;5065461;28;46625;-74
2023/12/23 12:38:50;;;;;;;1.00;0.60;;;8.00;62.30;;;;;;5064340;28;46502;-75
2023/12/23 12:41:16;;;;;;;1.10;0.60;;;8.10;61.80;;;;;;5050429;28;46439;-72
2023/12/23 12:43:43;;;;;;;1.10;0.60;;;8.10;61.50;;;;;;5048669;28;46595;-73
2023/12/23 12:46:11;;;;;;;1.30;0.63;;;8.20;61.40;;;;;;5043289;28;46471;-74
2023/12/23 12:48:37;;;;;;;1.40;0.70;;;8.30;61.00;;;;;;5038795;28;46559;-74
2023/12/23 12:51:05;;;;;;;1.00;0.60;;;8.30;60.10;;;;;;5063067;28;46446;-74
2023/12/23 12:53:31;;;;;;;1.00;0.60;;;8.30;60.80;;;;;;5059590;28;47212;-75